Aviation Digital Data Service (ADDS)

Output produced by METARs form (1937 UTC 23 January 2019)
found at http://www.aviationweather.gov/metar/data/
 
METAR text: LGTS 231920Z VRB02KT 8000 SCT005 BKN025 12/08 Q0996 RERA NOSIG
Conditions at: LGTS (THESSALONIKI/MIK, GR) observed 1920 UTC 23 January 2019
Temperature: 12.0°C (54°F)
Dewpoint: 8.0°C (46°F) [RH = 76%]
Pressure (altimeter): 29.41 inches Hg (996.0 mb)
Winds: variable direction winds at 2 MPH (2 knots; 1.0 m/s)
Visibility: 5 miles ( 8 km)
Ceiling: 2500 feet AGL
Clouds: scattered clouds at 500 feet AGL
broken clouds at 2500 feet AGL
Weather: no significant weather observed at this time

METAR text: LGTS 231850Z 14009KT 8000 RA SCT005 BKN025 12/08 Q0996 TEMPO RA
Conditions at: LGTS (THESSALONIKI/MIK, GR) observed 1850 UTC 23 January 2019
Temperature: 12.0°C (54°F)
Dewpoint: 8.0°C (46°F) [RH = 76%]
Pressure (altimeter): 29.41 inches Hg (996.0 mb)
Winds: from the SE (140 degrees) at 10 MPH (9 knots; 4.6 m/s)
Visibility: 5 miles ( 8 km)
Ceiling: 2500 feet AGL
Clouds: scattered clouds at 500 feet AGL
broken clouds at 2500 feet AGL
Weather: RA  (moderate rain)

METAR text: LGTS 231820Z 14010KT 8000 SCT005 BKN025 11/05 Q0996 NOSIG
Conditions at: LGTS (THESSALONIKI/MIK, GR) observed 1820 UTC 23 January 2019
Temperature: 11.0°C (52°F)
Dewpoint: 5.0°C (41°F) [RH = 66%]
Pressure (altimeter): 29.41 inches Hg (996.0 mb)
Winds: from the SE (140 degrees) at 12 MPH (10 knots; 5.1 m/s)
Visibility: 5 miles ( 8 km)
Ceiling: 2500 feet AGL
Clouds: scattered clouds at 500 feet AGL
broken clouds at 2500 feet AGL
Weather: no significant weather observed at this time

METAR text: LGTS 231750Z 15014KT 8000 SCT005 BKN025 10/08 Q0996 NOSIG
Conditions at: LGTS (THESSALONIKI/MIK, GR) observed 1750 UTC 23 January 2019
Temperature: 10.0°C (50°F)
Dewpoint: 8.0°C (46°F) [RH = 87%]
Pressure (altimeter): 29.41 inches Hg (996.0 mb)
Winds: from the SSE (150 degrees) at 16 MPH (14 knots; 7.2 m/s)
Visibility: 5 miles ( 8 km)
Ceiling: 2500 feet AGL
Clouds: scattered clouds at 500 feet AGL
broken clouds at 2500 feet AGL
Weather: no significant weather observed at this time

METAR text: LGTS 231720Z VRB03KT 6000 3000S BR SCT003 BKN025 08/08 Q0997 NOSIG
Conditions at: LGTS (THESSALONIKI/MIK, GR) observed 1720 UTC 23 January 2019
Temperature: 8.0°C (46°F)
Dewpoint: 8.0°C (46°F) [RH = 100%]
Pressure (altimeter): 29.44 inches Hg (997.0 mb)
Winds: variable direction winds at 3 MPH (3 knots; 1.5 m/s)
Visibility: 4 miles ( 6 km)
Ceiling: 2500 feet AGL
Clouds: scattered clouds at 300 feet AGL
broken clouds at 2500 feet AGL
Weather: BR  (mist)

METAR text: LGTS 231650Z VRB03KT 5000 2500S BR SCT003 BKN025 08/07 Q0997 NOSIG
Conditions at: LGTS (THESSALONIKI/MIK, GR) observed 1650 UTC 23 January 2019
Temperature: 8.0°C (46°F)
Dewpoint: 7.0°C (45°F) [RH = 93%]
Pressure (altimeter): 29.44 inches Hg (997.0 mb)
Winds: variable direction winds at 3 MPH (3 knots; 1.5 m/s)
Visibility: 3 miles ( 5 km)
Ceiling: 2500 feet AGL
Clouds: scattered clouds at 300 feet AGL
broken clouds at 2500 feet AGL
Weather: BR  (mist)

METAR text: LGTS 231620Z VRB03KT 5000 2500S BR SCT003 BKN025 09/08 Q0998 NOSIG
Conditions at: LGTS (THESSALONIKI/MIK, GR) observed 1620 UTC 23 January 2019
Temperature: 9.0°C (48°F)
Dewpoint: 8.0°C (46°F) [RH = 93%]
Pressure (altimeter): 29.47 inches Hg (998.0 mb)
Winds: variable direction winds at 3 MPH (3 knots; 1.5 m/s)
Visibility: 3 miles ( 5 km)
Ceiling: 2500 feet AGL
Clouds: scattered clouds at 300 feet AGL
broken clouds at 2500 feet AGL
Weather: BR  (mist)

METAR text: LGTS 231550Z VRB03KT 4000 2000S BR SCT003 BKN025 09/08 Q0998 NOSIG
Conditions at: LGTS (THESSALONIKI/MIK, GR) observed 1550 UTC 23 January 2019
Temperature: 9.0°C (48°F)
Dewpoint: 8.0°C (46°F) [RH = 93%]
Pressure (altimeter): 29.47 inches Hg (998.0 mb)
Winds: variable direction winds at 3 MPH (3 knots; 1.5 m/s)
Visibility: 2.49 miles (4.01 km)
Ceiling: 2500 feet AGL
Clouds: scattered clouds at 300 feet AGL
broken clouds at 2500 feet AGL
Weather: BR  (mist)

METAR text: LGTS 231520Z VRB03KT 2000 1000S R16/2000 R34/2000 BR BKN003 BKN025 09/08 Q0999 NOSIG
Conditions at: LGTS (THESSALONIKI/MIK, GR) observed 1520 UTC 23 January 2019
Temperature: 9.0°C (48°F)
Dewpoint: 8.0°C (46°F) [RH = 93%]
Pressure (altimeter): 29.50 inches Hg (999.0 mb)
Winds: variable direction winds at 3 MPH (3 knots; 1.5 m/s)
Visibility: 1.24 miles (2.00 km)
Ceiling: 300 feet AGL
Clouds: broken clouds at 300 feet AGL
broken clouds at 2500 feet AGL
Weather: BR  (mist)

METAR text: LGTS 231450Z VRB03KT 2000 1000S R16/2000 R34/2000 BR BKN003 BKN025 09/08 Q0999 NOSIG
Conditions at: LGTS (THESSALONIKI/MIK, GR) observed 1450 UTC 23 January 2019
Temperature: 9.0°C (48°F)
Dewpoint: 8.0°C (46°F) [RH = 93%]
Pressure (altimeter): 29.50 inches Hg (999.0 mb)
Winds: variable direction winds at 3 MPH (3 knots; 1.5 m/s)
Visibility: 1.24 miles (2.00 km)
Ceiling: 300 feet AGL
Clouds: broken clouds at 300 feet AGL
broken clouds at 2500 feet AGL
Weather: BR  (mist)

METAR text: LGTS 231420Z 29004KT 2000 1000S R16/2000 R34/2000 -RA BR BKN003 BKN025 09/08 Q0999 NOSIG
Conditions at: LGTS (THESSALONIKI/MIK, GR) observed 1420 UTC 23 January 2019
Temperature: 9.0°C (48°F)
Dewpoint: 8.0°C (46°F) [RH = 93%]
Pressure (altimeter): 29.50 inches Hg (999.0 mb)
Winds: from the WNW (290 degrees) at 5 MPH (4 knots; 2.1 m/s)
Visibility: 1.24 miles (2.00 km)
Ceiling: 300 feet AGL
Clouds: broken clouds at 300 feet AGL
broken clouds at 2500 feet AGL
Weather: -RA BR  (light rain, mist)

METAR text: LGTS 231350Z VRB03KT 3000 1500S -RA BR SCT003 BKN025 09/08 Q1000 NOSIG
Conditions at: LGTS (THESSALONIKI/MIK, GR) observed 1350 UTC 23 January 2019
Temperature: 9.0°C (48°F)
Dewpoint: 8.0°C (46°F) [RH = 93%]
Pressure (altimeter): 29.53 inches Hg (1000.0 mb)
Winds: variable direction winds at 3 MPH (3 knots; 1.5 m/s)
Visibility: 1.86 miles (2.99 km)
Ceiling: 2500 feet AGL
Clouds: scattered clouds at 300 feet AGL
broken clouds at 2500 feet AGL
Weather: -RA BR  (light rain, mist)

METAR text: LGTS 231320Z VRB03KT 4000 2000S BR SCT004 BKN025 09/08 Q1000 BECMG 6000 RA BKN010 BKN025
Conditions at: LGTS (THESSALONIKI/MIK, GR) observed 1320 UTC 23 January 2019
Temperature: 9.0°C (48°F)
Dewpoint: 8.0°C (46°F) [RH = 93%]
Pressure (altimeter): 29.53 inches Hg (1000.0 mb)
Winds: variable direction winds at 3 MPH (3 knots; 1.5 m/s)
Visibility: 2.49 miles (4.01 km)
Ceiling: 2500 feet AGL
Clouds: scattered clouds at 400 feet AGL
broken clouds at 2500 feet AGL
Weather: BR  (mist)

METAR text: LGTS 231250Z VRB02KT 5000 2500S BR SCT004 BKN025 09/08 Q1001 BECMG 6000 RA BKN010 BKN025
Conditions at: LGTS (THESSALONIKI/MIK, GR) observed 1250 UTC 23 January 2019
Temperature: 9.0°C (48°F)
Dewpoint: 8.0°C (46°F) [RH = 93%]
Pressure (altimeter): 29.56 inches Hg (1001.0 mb)
Winds: variable direction winds at 2 MPH (2 knots; 1.0 m/s)
Visibility: 3 miles ( 5 km)
Ceiling: 2500 feet AGL
Clouds: scattered clouds at 400 feet AGL
broken clouds at 2500 feet AGL
Weather: BR  (mist)

METAR text: LGTS 231220Z VRB02KT 4000 2000E BR BKN004 BKN025 08/07 Q1001 NOSIG
Conditions at: LGTS (THESSALONIKI/MIK, GR) observed 1220 UTC 23 January 2019
Temperature: 8.0°C (46°F)
Dewpoint: 7.0°C (45°F) [RH = 93%]
Pressure (altimeter): 29.56 inches Hg (1001.0 mb)
Winds: variable direction winds at 2 MPH (2 knots; 1.0 m/s)
Visibility: 2.49 miles (4.01 km)
Ceiling: 400 feet AGL
Clouds: broken clouds at 400 feet AGL
broken clouds at 2500 feet AGL
Weather: BR  (mist)

METAR text: LGTS 231150Z 32004KT 3000 1500E BR BKN004 BKN025 08/07 Q1002 BECMG 6000 RA BKN010 BKN025
Conditions at: LGTS (THESSALONIKI/MIK, GR) observed 1150 UTC 23 January 2019
Temperature: 8.0°C (46°F)
Dewpoint: 7.0°C (45°F) [RH = 93%]
Pressure (altimeter): 29.59 inches Hg (1002.0 mb)
Winds: from the NW (320 degrees) at 5 MPH (4 knots; 2.1 m/s)
Visibility: 1.86 miles (2.99 km)
Ceiling: 400 feet AGL
Clouds: broken clouds at 400 feet AGL
broken clouds at 2500 feet AGL
Weather: BR  (mist)

METAR text: LGTS 231120Z 33004KT 3000 1500E R16/2000 R34/2000 BR BKN004 BKN025 08/07 Q1003 BECMG 6000 RA BKN010 BKN025
Conditions at: LGTS (THESSALONIKI/MIK, GR) observed 1120 UTC 23 January 2019
Temperature: 8.0°C (46°F)
Dewpoint: 7.0°C (45°F) [RH = 93%]
Pressure (altimeter): 29.62 inches Hg (1003.0 mb)
Winds: from the NNW (330 degrees) at 5 MPH (4 knots; 2.1 m/s)
Visibility: 1.86 miles (2.99 km)
Ceiling: 400 feet AGL
Clouds: broken clouds at 400 feet AGL
broken clouds at 2500 feet AGL
Weather: BR  (mist)

METAR text: LGTS 231050Z 27005KT 1500 R16/2000 R34/2000 -RA BR BKN004 BKN025 08/07 Q1003 TEMPO 3000 RABR BKN005 BKN025
Conditions at: LGTS (THESSALONIKI/MIK, GR) observed 1050 UTC 23 January 2019
Temperature: 8.0°C (46°F)
Dewpoint: 7.0°C (45°F) [RH = 93%]
Pressure (altimeter): 29.62 inches Hg (1003.0 mb)
Winds: from the W (270 degrees) at 6 MPH (5 knots; 2.6 m/s)
Visibility: 0.93 miles (1.50 km)
Ceiling: 400 feet AGL
Clouds: broken clouds at 400 feet AGL
broken clouds at 2500 feet AGL
Weather: -RA BR  (light rain, mist)

METAR text: LGTS 231020Z VRB02KT 2000 -RA BR BKN004 BKN025 08/07 Q1004 TEMPO 3000 RABR BKN005 BKN025
Conditions at: LGTS (THESSALONIKI/MIK, GR) observed 1020 UTC 23 January 2019
Temperature: 8.0°C (46°F)
Dewpoint: 7.0°C (45°F) [RH = 93%]
Pressure (altimeter): 29.65 inches Hg (1004.0 mb)
Winds: variable direction winds at 2 MPH (2 knots; 1.0 m/s)
Visibility: 1.24 miles (2.00 km)
Ceiling: 400 feet AGL
Clouds: broken clouds at 400 feet AGL
broken clouds at 2500 feet AGL
Weather: -RA BR  (light rain, mist)

METAR text: LGTS 230950Z VRB02KT 1500 R16/2000 R34/2000 -RA BR BKN004 BKN025 08/07 Q1004 TEMPO 3000 RA BR BKN005 BKN025
Conditions at: LGTS (THESSALONIKI/MIK, GR) observed 0950 UTC 23 January 2019
Temperature: 8.0°C (46°F)
Dewpoint: 7.0°C (45°F) [RH = 93%]
Pressure (altimeter): 29.65 inches Hg (1004.0 mb)
Winds: variable direction winds at 2 MPH (2 knots; 1.0 m/s)
Visibility: 0.93 miles (1.50 km)
Ceiling: 400 feet AGL
Clouds: broken clouds at 400 feet AGL
broken clouds at 2500 feet AGL
Weather: -RA BR  (light rain, mist)

METAR text: LGTS 230920Z VRB02KT 1200 R16/2000 R34/2000 BR BKN002 BKN025 07/07 Q1004 BECMG 1500 BR
Conditions at: LGTS (THESSALONIKI/MIK, GR) observed 0920 UTC 23 January 2019
Temperature: 7.0°C (45°F)
Dewpoint: 7.0°C (45°F) [RH = 100%]
Pressure (altimeter): 29.65 inches Hg (1004.0 mb)
Winds: variable direction winds at 2 MPH (2 knots; 1.0 m/s)
Visibility: 0.75 miles (1.21 km)
Ceiling: 200 feet AGL
Clouds: broken clouds at 200 feet AGL
broken clouds at 2500 feet AGL
Weather: BR  (mist)

METAR text: LGTS 230850Z VRB02KT 1000 R16/2000 R34/2000 BR BKN002 BKN025 07/07 Q1004 TEMPO 1500 BR
Conditions at: LGTS (THESSALONIKI/MIK, GR) observed 0850 UTC 23 January 2019
Temperature: 7.0°C (45°F)
Dewpoint: 7.0°C (45°F) [RH = 100%]
Pressure (altimeter): 29.65 inches Hg (1004.0 mb)
Winds: variable direction winds at 2 MPH (2 knots; 1.0 m/s)
Visibility: 0.62 miles (1.00 km)
Ceiling: 200 feet AGL
Clouds: broken clouds at 200 feet AGL
broken clouds at 2500 feet AGL
Weather: BR  (mist)

METAR text: LGTS 230820Z VRB02KT 0800 0400E R16/2000 R34/2000 FG BKN002 07/07 Q1004 TEMPO 1500 BR
Conditions at: LGTS (THESSALONIKI/MIK, GR) observed 0820 UTC 23 January 2019
Temperature: 7.0°C (45°F)
Dewpoint: 7.0°C (45°F) [RH = 100%]
Pressure (altimeter): 29.65 inches Hg (1004.0 mb)
Winds: variable direction winds at 2 MPH (2 knots; 1.0 m/s)
Visibility: 0.50 miles (0.80 km)
Ceiling: 200 feet AGL
Clouds: broken clouds at 200 feet AGL
Weather: FG  (fog)

METAR text: LGTS 230750Z VRB02KT 0350 R16/1700 R34/2000 FG BKN002 07/07 Q1004 TEMPO 0800 FG BKN005
Conditions at: LGTS (THESSALONIKI/MIK, GR) observed 0750 UTC 23 January 2019
Temperature: 7.0°C (45°F)
Dewpoint: 7.0°C (45°F) [RH = 100%]
Pressure (altimeter): 29.65 inches Hg (1004.0 mb)
Winds: variable direction winds at 2 MPH (2 knots; 1.0 m/s)
Visibility: 0.22 miles (0.35 km)
Ceiling: 200 feet AGL
Clouds: broken clouds at 200 feet AGL
Weather: FG  (fog)

METAR text: LGTS 230720Z VRB02KT 0200 R16/1500 R34/1500 FG VV002 07/07 Q1005 TEMPO 0350 FG
Conditions at: LGTS (THESSALONIKI/MIK, GR) observed 0720 UTC 23 January 2019
Temperature: 7.0°C (45°F)
Dewpoint: 7.0°C (45°F) [RH = 100%]
Pressure (altimeter): 29.68 inches Hg (1005.0 mb)
Winds: variable direction winds at 2 MPH (2 knots; 1.0 m/s)
Visibility: 0.12 miles (0.19 km)
Ceiling: indefinite ceiling with vertical visibility of 200 feet AGL
Clouds: obscured sky
Weather: FG  (fog)

METAR text: LGTS 230650Z VRB02KT 0350 R16/2000 R34/2000 FG BKN002 07/07 Q1005 NOSIG
Conditions at: LGTS (THESSALONIKI/MIK, GR) observed 0650 UTC 23 January 2019
Temperature: 7.0°C (45°F)
Dewpoint: 7.0°C (45°F) [RH = 100%]
Pressure (altimeter): 29.68 inches Hg (1005.0 mb)
Winds: variable direction winds at 2 MPH (2 knots; 1.0 m/s)
Visibility: 0.22 miles (0.35 km)
Ceiling: 200 feet AGL
Clouds: broken clouds at 200 feet AGL
Weather: FG  (fog)

METAR text: LGTS 230620Z 00000KT 0200 R16/1900 R34/2000 FG VV002 07/07 Q1005 NOSIG
Conditions at: LGTS (THESSALONIKI/MIK, GR) observed 0620 UTC 23 January 2019
Temperature: 7.0°C (45°F)
Dewpoint: 7.0°C (45°F) [RH = 100%]
Pressure (altimeter): 29.68 inches Hg (1005.0 mb)
Winds: calm
Visibility: 0.12 miles (0.19 km)
Ceiling: indefinite ceiling with vertical visibility of 200 feet AGL
Clouds: obscured sky
Weather: FG  (fog)

METAR text: LGTS 230550Z 00000KT 0100 R16/0800 R34/1000 FG VV002 07/07 Q1005 NOSIG
Conditions at: LGTS (THESSALONIKI/MIK, GR) observed 0550 UTC 23 January 2019
Temperature: 7.0°C (45°F)
Dewpoint: 7.0°C (45°F) [RH = 100%]
Pressure (altimeter): 29.68 inches Hg (1005.0 mb)
Winds: calm
Visibility: 0.06 miles (0.10 km)
Ceiling: indefinite ceiling with vertical visibility of 200 feet AGL
Clouds: obscured sky
Weather: FG  (fog)

METAR text: LGTS 230520Z VRB02KT 0200 R16/0700 R34/0550 FG VV002 06/06 Q1005 NOSIG
Conditions at: LGTS (THESSALONIKI/MIK, GR) observed 0520 UTC 23 January 2019
Temperature: 6.0°C (43°F)
Dewpoint: 6.0°C (43°F) [RH = 100%]
Pressure (altimeter): 29.68 inches Hg (1005.0 mb)
Winds: variable direction winds at 2 MPH (2 knots; 1.0 m/s)
Visibility: 0.12 miles (0.19 km)
Ceiling: indefinite ceiling with vertical visibility of 200 feet AGL
Clouds: obscured sky
Weather: FG  (fog)

METAR text: LGTS 230450Z VRB02KT 0200 R16/0900 R34/0550 FG VV002 06/06 Q1005 NOSIG
Conditions at: LGTS (THESSALONIKI/MIK, GR) observed 0450 UTC 23 January 2019
Temperature: 6.0°C (43°F)
Dewpoint: 6.0°C (43°F) [RH = 100%]
Pressure (altimeter): 29.68 inches Hg (1005.0 mb)
Winds: variable direction winds at 2 MPH (2 knots; 1.0 m/s)
Visibility: 0.12 miles (0.19 km)
Ceiling: indefinite ceiling with vertical visibility of 200 feet AGL
Clouds: obscured sky
Weather: FG  (fog)

METAR text: LGTS 230420Z VRB02KT 0100 R16/0550 R34/0500 FG VV001 06/06 Q1005 NOSIG
Conditions at: LGTS (THESSALONIKI/MIK, GR) observed 0420 UTC 23 January 2019
Temperature: 6.0°C (43°F)
Dewpoint: 6.0°C (43°F) [RH = 100%]
Pressure (altimeter): 29.68 inches Hg (1005.0 mb)
Winds: variable direction winds at 2 MPH (2 knots; 1.0 m/s)
Visibility: 0.06 miles (0.10 km)
Ceiling: indefinite ceiling with vertical visibility of 100 feet AGL
Clouds: obscured sky
Weather: FG  (fog)

METAR text: LGTS 230350Z VRB02KT 0100 R16/0450 R34/0450 FG VV001 06/06 Q1005 NOSIG
Conditions at: LGTS (THESSALONIKI/MIK, GR) observed 0350 UTC 23 January 2019
Temperature: 6.0°C (43°F)
Dewpoint: 6.0°C (43°F) [RH = 100%]
Pressure (altimeter): 29.68 inches Hg (1005.0 mb)
Winds: variable direction winds at 2 MPH (2 knots; 1.0 m/s)
Visibility: 0.06 miles (0.10 km)
Ceiling: indefinite ceiling with vertical visibility of 100 feet AGL
Clouds: obscured sky
Weather: FG  (fog)

METAR text: LGTS 230320Z VRB03KT 0250 R16/1300 R34/1500 FG VV002 05/05 Q1005 NOSIG
Conditions at: LGTS (THESSALONIKI/MIK, GR) observed 0320 UTC 23 January 2019
Temperature: 5.0°C (41°F)
Dewpoint: 5.0°C (41°F) [RH = 100%]
Pressure (altimeter): 29.68 inches Hg (1005.0 mb)
Winds: variable direction winds at 3 MPH (3 knots; 1.5 m/s)
Visibility: 0.16 miles (0.26 km)
Ceiling: indefinite ceiling with vertical visibility of 200 feet AGL
Clouds: obscured sky
Weather: FG  (fog)

METAR text: LGTS 230250Z VRB03KT 0800 0300E R16/2000 R34/0900 FG BKN002 05/05 Q1005 NOSIG
Conditions at: LGTS (THESSALONIKI/MIK, GR) observed 0250 UTC 23 January 2019
Temperature: 5.0°C (41°F)
Dewpoint: 5.0°C (41°F) [RH = 100%]
Pressure (altimeter): 29.68 inches Hg (1005.0 mb)
Winds: variable direction winds at 3 MPH (3 knots; 1.5 m/s)
Visibility: 0.50 miles (0.80 km)
Ceiling: 200 feet AGL
Clouds: broken clouds at 200 feet AGL
Weather: FG  (fog)

METAR text: LGTS 230220Z VRB03KT 0200 R16/0600 R34/1100 FG VV002 06/06 Q1005 NOSIG
Conditions at: LGTS (THESSALONIKI/MIK, GR) observed 0220 UTC 23 January 2019
Temperature: 6.0°C (43°F)
Dewpoint: 6.0°C (43°F) [RH = 100%]
Pressure (altimeter): 29.68 inches Hg (1005.0 mb)
Winds: variable direction winds at 3 MPH (3 knots; 1.5 m/s)
Visibility: 0.12 miles (0.19 km)
Ceiling: indefinite ceiling with vertical visibility of 200 feet AGL
Clouds: obscured sky
Weather: FG  (fog)

METAR text: LGTS 230150Z VRB03KT 0200 R16/0650 R34/0750 FG VV001 06/06 Q1005 NOSIG
Conditions at: LGTS (THESSALONIKI/MIK, GR) observed 0150 UTC 23 January 2019
Temperature: 6.0°C (43°F)
Dewpoint: 6.0°C (43°F) [RH = 100%]
Pressure (altimeter): 29.68 inches Hg (1005.0 mb)
Winds: variable direction winds at 3 MPH (3 knots; 1.5 m/s)
Visibility: 0.12 miles (0.19 km)
Ceiling: indefinite ceiling with vertical visibility of 100 feet AGL
Clouds: obscured sky
Weather: FG  (fog)

METAR text: LGTS 230120Z VRB02KT 0100 R16/0375 R34/0500 FG VV001 07/07 Q1006 NOSIG
Conditions at: LGTS (THESSALONIKI/MIK, GR) observed 0120 UTC 23 January 2019
Temperature: 7.0°C (45°F)
Dewpoint: 7.0°C (45°F) [RH = 100%]
Pressure (altimeter): 29.70 inches Hg (1006.0 mb)
Winds: variable direction winds at 2 MPH (2 knots; 1.0 m/s)
Visibility: 0.06 miles (0.10 km)
Ceiling: indefinite ceiling with vertical visibility of 100 feet AGL
Clouds: obscured sky
Weather: FG  (fog)

METAR text: LGTS 230050Z VRB02KT 0100 R16/0300 R34/0450 FG VV001 07/07 Q1006 NOSIG
Conditions at: LGTS (THESSALONIKI/MIK, GR) observed 0050 UTC 23 January 2019
Temperature: 7.0°C (45°F)
Dewpoint: 7.0°C (45°F) [RH = 100%]
Pressure (altimeter): 29.70 inches Hg (1006.0 mb)
Winds: variable direction winds at 2 MPH (2 knots; 1.0 m/s)
Visibility: 0.06 miles (0.10 km)
Ceiling: indefinite ceiling with vertical visibility of 100 feet AGL
Clouds: obscured sky
Weather: FG  (fog)

METAR text: LGTS 230020Z VRB03KT 0250 R16/0550 R34/0450 FG BKN002 07/06 Q1006 NOSIG
Conditions at: LGTS (THESSALONIKI/MIK, GR) observed 0020 UTC 23 January 2019
Temperature: 7.0°C (45°F)
Dewpoint: 6.0°C (43°F) [RH = 93%]
Pressure (altimeter): 29.70 inches Hg (1006.0 mb)
Winds: variable direction winds at 3 MPH (3 knots; 1.5 m/s)
Visibility: 0.16 miles (0.26 km)
Ceiling: 200 feet AGL
Clouds: broken clouds at 200 feet AGL
Weather: FG  (fog)

METAR text: LGTS 222350Z VRB02KT 0400 R16/0550 R34/0600 FG BKN004 07/06 Q1006 NOSIG
Conditions at: LGTS (THESSALONIKI/MIK, GR) observed 2350 UTC 22 January 2019
Temperature: 7.0°C (45°F)
Dewpoint: 6.0°C (43°F) [RH = 93%]
Pressure (altimeter): 29.70 inches Hg (1006.0 mb)
Winds: variable direction winds at 2 MPH (2 knots; 1.0 m/s)
Visibility: 0.25 miles (0.40 km)
Ceiling: 400 feet AGL
Clouds: broken clouds at 400 feet AGL
Weather: FG  (fog)

METAR text: LGTS 222320Z 35005KT 6000 2000SW BR SCT006 07/06 Q1006 NOSIG
Conditions at: LGTS (THESSALONIKI/MIK, GR) observed 2320 UTC 22 January 2019
Temperature: 7.0°C (45°F)
Dewpoint: 6.0°C (43°F) [RH = 93%]
Pressure (altimeter): 29.70 inches Hg (1006.0 mb)
Winds: from the N (350 degrees) at 6 MPH (5 knots; 2.6 m/s)
Visibility: 4 miles ( 6 km)
Ceiling: at least 12,000 feet AGL
Clouds: scattered clouds at 600 feet AGL
Weather: BR  (mist)

METAR text: LGTS 222250Z 26005KT 6000 1500SW R16/2000 R34/1900 BR SCT006 07/06 Q1006 NOSIG
Conditions at: LGTS (THESSALONIKI/MIK, GR) observed 2250 UTC 22 January 2019
Temperature: 7.0°C (45°F)
Dewpoint: 6.0°C (43°F) [RH = 93%]
Pressure (altimeter): 29.70 inches Hg (1006.0 mb)
Winds: from the W (260 degrees) at 6 MPH (5 knots; 2.6 m/s)
Visibility: 4 miles ( 6 km)
Ceiling: at least 12,000 feet AGL
Clouds: scattered clouds at 600 feet AGL
Weather: BR  (mist)

METAR text: LGTS 222220Z 26005KT 8000 FEW008 08/06 Q1006 NOSIG
Conditions at: LGTS (THESSALONIKI/MIK, GR) observed 2220 UTC 22 January 2019
Temperature: 8.0°C (46°F)
Dewpoint: 6.0°C (43°F) [RH = 87%]
Pressure (altimeter): 29.70 inches Hg (1006.0 mb)
Winds: from the W (260 degrees) at 6 MPH (5 knots; 2.6 m/s)
Visibility: 5 miles ( 8 km)
Ceiling: at least 12,000 feet AGL
Clouds: few clouds at 800 feet AGL
Weather: no significant weather observed at this time

METAR text: LGTS 222150Z VRB03KT 8000 FEW008 08/07 Q1007 NOSIG
Conditions at: LGTS (THESSALONIKI/MIK, GR) observed 2150 UTC 22 January 2019
Temperature: 8.0°C (46°F)
Dewpoint: 7.0°C (45°F) [RH = 93%]
Pressure (altimeter): 29.73 inches Hg (1007.0 mb)
Winds: variable direction winds at 3 MPH (3 knots; 1.5 m/s)
Visibility: 5 miles ( 8 km)
Ceiling: at least 12,000 feet AGL
Clouds: few clouds at 800 feet AGL
Weather: no significant weather observed at this time

METAR text: LGTS 222120Z VRB03KT 8000 FEW008 08/07 Q1007 NOSIG
Conditions at: LGTS (THESSALONIKI/MIK, GR) observed 2120 UTC 22 January 2019
Temperature: 8.0°C (46°F)
Dewpoint: 7.0°C (45°F) [RH = 93%]
Pressure (altimeter): 29.73 inches Hg (1007.0 mb)
Winds: variable direction winds at 3 MPH (3 knots; 1.5 m/s)
Visibility: 5 miles ( 8 km)
Ceiling: at least 12,000 feet AGL
Clouds: few clouds at 800 feet AGL
Weather: no significant weather observed at this time

METAR text: LGTS 222050Z VRB03KT 8000 FEW008 08/07 Q1007 NOSIG
Conditions at: LGTS (THESSALONIKI/MIK, GR) observed 2050 UTC 22 January 2019
Temperature: 8.0°C (46°F)
Dewpoint: 7.0°C (45°F) [RH = 93%]
Pressure (altimeter): 29.73 inches Hg (1007.0 mb)
Winds: variable direction winds at 3 MPH (3 knots; 1.5 m/s)
Visibility: 5 miles ( 8 km)
Ceiling: at least 12,000 feet AGL
Clouds: few clouds at 800 feet AGL
Weather: no significant weather observed at this time

METAR text: LGTS 222020Z VRB02KT 8000 FEW008 BKN020 07/06 Q1007 NOSIG
Conditions at: LGTS (THESSALONIKI/MIK, GR) observed 2020 UTC 22 January 2019
Temperature: 7.0°C (45°F)
Dewpoint: 6.0°C (43°F) [RH = 93%]
Pressure (altimeter): 29.73 inches Hg (1007.0 mb)
Winds: variable direction winds at 2 MPH (2 knots; 1.0 m/s)
Visibility: 5 miles ( 8 km)
Ceiling: 2000 feet AGL
Clouds: few clouds at 800 feet AGL
broken clouds at 2000 feet AGL
Weather: no significant weather observed at this time

METAR text: LGTS 221950Z 34005KT 6000 -RA SCT006 FEW016TCU BKN020 08/07 Q1007 TEMPO RA
Conditions at: LGTS (THESSALONIKI/MIK, GR) observed 1950 UTC 22 January 2019
Temperature: 8.0°C (46°F)
Dewpoint: 7.0°C (45°F) [RH = 93%]
Pressure (altimeter): 29.73 inches Hg (1007.0 mb)
Winds: from the NNW (340 degrees) at 6 MPH (5 knots; 2.6 m/s)
Visibility: 4 miles ( 6 km)
Ceiling: 2000 feet AGL
Clouds: scattered clouds at 600 feet AGL
few clouds at 1600 feet AGL
broken clouds at 2000 feet AGL
Weather: -RA  (light rain)

METAR text: LGTS 221920Z 36008KT 4000 -RA SCT006 FEW016TCU BKN025 08/07 Q1008 RERA TEMPO TSRA
Conditions at: LGTS (THESSALONIKI/MIK, GR) observed 1920 UTC 22 January 2019
Temperature: 8.0°C (46°F)
Dewpoint: 7.0°C (45°F) [RH = 93%]
Pressure (altimeter): 29.76 inches Hg (1008.0 mb)
Winds: from the N (360 degrees) at 9 MPH (8 knots; 4.1 m/s)
Visibility: 2.49 miles (4.01 km)
Ceiling: 2500 feet AGL
Clouds: scattered clouds at 600 feet AGL
few clouds at 1600 feet AGL
broken clouds at 2500 feet AGL
Weather: -RA  (light rain)

METAR text: LGTS 221850Z 34014KT 3000 +RA FEW008 FEW016TCU BKN025 09/08 Q1008 TEMPO TSRA
Conditions at: LGTS (THESSALONIKI/MIK, GR) observed 1850 UTC 22 January 2019
Temperature: 9.0°C (48°F)
Dewpoint: 8.0°C (46°F) [RH = 93%]
Pressure (altimeter): 29.76 inches Hg (1008.0 mb)
Winds: from the NNW (340 degrees) at 16 MPH (14 knots; 7.2 m/s)
Visibility: 1.86 miles (2.99 km)
Ceiling: 2500 feet AGL
Clouds: few clouds at 800 feet AGL
few clouds at 1600 feet AGL
broken clouds at 2500 feet AGL
Weather: +RA  (heavy rain)

METAR text: LGTS 221820Z 31012KT 8000 -RA FEW008 FEW016TCU BKN025 09/08 Q1008 TEMPO SHRA
Conditions at: LGTS (THESSALONIKI/MIK, GR) observed 1820 UTC 22 January 2019
Temperature: 9.0°C (48°F)
Dewpoint: 8.0°C (46°F) [RH = 93%]
Pressure (altimeter): 29.76 inches Hg (1008.0 mb)
Winds: from the NW (310 degrees) at 14 MPH (12 knots; 6.2 m/s)
Visibility: 5 miles ( 8 km)
Ceiling: 2500 feet AGL
Clouds: few clouds at 800 feet AGL
few clouds at 1600 feet AGL
broken clouds at 2500 feet AGL
Weather: -RA  (light rain)

METAR text: LGTS 221750Z 27012KT 8000 -RA FEW008 FEW016TCU BKN025 10/08 Q1008 TEMPO SHRA
Conditions at: LGTS (THESSALONIKI/MIK, GR) observed 1750 UTC 22 January 2019
Temperature: 10.0°C (50°F)
Dewpoint: 8.0°C (46°F) [RH = 87%]
Pressure (altimeter): 29.76 inches Hg (1008.0 mb)
Winds: from the W (270 degrees) at 14 MPH (12 knots; 6.2 m/s)
Visibility: 5 miles ( 8 km)
Ceiling: 2500 feet AGL
Clouds: few clouds at 800 feet AGL
few clouds at 1600 feet AGL
broken clouds at 2500 feet AGL
Weather: -RA  (light rain)

METAR text: LGTS 221720Z 11007KT 9999 FEW010 BKN025 12/07 Q1007 NOSIG
Conditions at: LGTS (THESSALONIKI/MIK, GR) observed 1720 UTC 22 January 2019
Temperature: 12.0°C (54°F)
Dewpoint: 7.0°C (45°F) [RH = 71%]
Pressure (altimeter): 29.73 inches Hg (1007.0 mb)
Winds: from the ESE (110 degrees) at 8 MPH (7 knots; 3.6 m/s)
Visibility: 6 or more miles (10+ km)
Ceiling: 2500 feet AGL
Clouds: few clouds at 1000 feet AGL
broken clouds at 2500 feet AGL
Weather: no significant weather observed at this time

METAR text: LGTS 221650Z 11007KT 9999 FEW010 BKN025 12/07 Q1008 NOSIG
Conditions at: LGTS (THESSALONIKI/MIK, GR) observed 1650 UTC 22 January 2019
Temperature: 12.0°C (54°F)
Dewpoint: 7.0°C (45°F) [RH = 71%]
Pressure (altimeter): 29.76 inches Hg (1008.0 mb)
Winds: from the ESE (110 degrees) at 8 MPH (7 knots; 3.6 m/s)
Visibility: 6 or more miles (10+ km)
Ceiling: 2500 feet AGL
Clouds: few clouds at 1000 feet AGL
broken clouds at 2500 feet AGL
Weather: no significant weather observed at this time

METAR text: LGTS 221620Z 11009KT 9999 FEW010 BKN025 12/07 Q1008 NOSIG
Conditions at: LGTS (THESSALONIKI/MIK, GR) observed 1620 UTC 22 January 2019
Temperature: 12.0°C (54°F)
Dewpoint: 7.0°C (45°F) [RH = 71%]
Pressure (altimeter): 29.76 inches Hg (1008.0 mb)
Winds: from the ESE (110 degrees) at 10 MPH (9 knots; 4.6 m/s)
Visibility: 6 or more miles (10+ km)
Ceiling: 2500 feet AGL
Clouds: few clouds at 1000 feet AGL
broken clouds at 2500 feet AGL
Weather: no significant weather observed at this time

METAR text: LGTS 221550Z 11011KT 9999 FEW010 BKN025 12/07 Q1008 NOSIG
Conditions at: LGTS (THESSALONIKI/MIK, GR) observed 1550 UTC 22 January 2019
Temperature: 12.0°C (54°F)
Dewpoint: 7.0°C (45°F) [RH = 71%]
Pressure (altimeter): 29.76 inches Hg (1008.0 mb)
Winds: from the ESE (110 degrees) at 13 MPH (11 knots; 5.7 m/s)
Visibility: 6 or more miles (10+ km)
Ceiling: 2500 feet AGL
Clouds: few clouds at 1000 feet AGL
broken clouds at 2500 feet AGL
Weather: no significant weather observed at this time

METAR text: LGTS 221520Z 12008KT 9999 FEW010 BKN025 11/08 Q1009 NOSIG
Conditions at: LGTS (THESSALONIKI/MIK, GR) observed 1520 UTC 22 January 2019
Temperature: 11.0°C (52°F)
Dewpoint: 8.0°C (46°F) [RH = 82%]
Pressure (altimeter): 29.79 inches Hg (1009.0 mb)
Winds: from the ESE (120 degrees) at 9 MPH (8 knots; 4.1 m/s)
Visibility: 6 or more miles (10+ km)
Ceiling: 2500 feet AGL
Clouds: few clouds at 1000 feet AGL
broken clouds at 2500 feet AGL
Weather: no significant weather observed at this time

METAR text: LGTS 221450Z 13007KT 9999 FEW010 BKN025 12/07 Q1009 NOSIG
Conditions at: LGTS (THESSALONIKI/MIK, GR) observed 1450 UTC 22 January 2019
Temperature: 12.0°C (54°F)
Dewpoint: 7.0°C (45°F) [RH = 71%]
Pressure (altimeter): 29.79 inches Hg (1009.0 mb)
Winds: from the SE (130 degrees) at 8 MPH (7 knots; 3.6 m/s)
Visibility: 6 or more miles (10+ km)
Ceiling: 2500 feet AGL
Clouds: few clouds at 1000 feet AGL
broken clouds at 2500 feet AGL
Weather: no significant weather observed at this time

METAR text: LGTS 221420Z 11008KT 8000 FEW015 BKN025 10/08 Q1009 NOSIG
Conditions at: LGTS (THESSALONIKI/MIK, GR) observed 1420 UTC 22 January 2019
Temperature: 10.0°C (50°F)
Dewpoint: 8.0°C (46°F) [RH = 87%]
Pressure (altimeter): 29.79 inches Hg (1009.0 mb)
Winds: from the ESE (110 degrees) at 9 MPH (8 knots; 4.1 m/s)
Visibility: 5 miles ( 8 km)
Ceiling: 2500 feet AGL
Clouds: few clouds at 1500 feet AGL
broken clouds at 2500 feet AGL
Weather: no significant weather observed at this time

METAR text: LGTS 221350Z VRB02KT 7000 FEW015 BKN025 10/08 Q1010 NOSIG
Conditions at: LGTS (THESSALONIKI/MIK, GR) observed 1350 UTC 22 January 2019
Temperature: 10.0°C (50°F)
Dewpoint: 8.0°C (46°F) [RH = 87%]
Pressure (altimeter): 29.82 inches Hg (1010.0 mb)
Winds: variable direction winds at 2 MPH (2 knots; 1.0 m/s)
Visibility: 4 miles ( 7 km)
Ceiling: 2500 feet AGL
Clouds: few clouds at 1500 feet AGL
broken clouds at 2500 feet AGL
Weather: no significant weather observed at this time

METAR text: LGTS 221320Z VRB02KT 5000 BR SCT005 BKN025 10/08 Q1011 NOSIG
Conditions at: LGTS (THESSALONIKI/MIK, GR) observed 1320 UTC 22 January 2019
Temperature: 10.0°C (50°F)
Dewpoint: 8.0°C (46°F) [RH = 87%]
Pressure (altimeter): 29.85 inches Hg (1011.0 mb)
Winds: variable direction winds at 2 MPH (2 knots; 1.0 m/s)
Visibility: 3 miles ( 5 km)
Ceiling: 2500 feet AGL
Clouds: scattered clouds at 500 feet AGL
broken clouds at 2500 feet AGL
Weather: BR  (mist)

METAR text: LGTS 221250Z VRB03KT 5000 BR SCT005 BKN025 10/08 Q1011 NOSIG
Conditions at: LGTS (THESSALONIKI/MIK, GR) observed 1250 UTC 22 January 2019
Temperature: 10.0°C (50°F)
Dewpoint: 8.0°C (46°F) [RH = 87%]
Pressure (altimeter): 29.85 inches Hg (1011.0 mb)
Winds: variable direction winds at 3 MPH (3 knots; 1.5 m/s)
Visibility: 3 miles ( 5 km)
Ceiling: 2500 feet AGL
Clouds: scattered clouds at 500 feet AGL
broken clouds at 2500 feet AGL
Weather: BR  (mist)

METAR text: LGTS 221220Z VRB02KT 5000 2500SW BR SCT005 BKN025 10/08 Q1012 NOSIG
Conditions at: LGTS (THESSALONIKI/MIK, GR) observed 1220 UTC 22 January 2019
Temperature: 10.0°C (50°F)
Dewpoint: 8.0°C (46°F) [RH = 87%]
Pressure (altimeter): 29.88 inches Hg (1012.0 mb)
Winds: variable direction winds at 2 MPH (2 knots; 1.0 m/s)
Visibility: 3 miles ( 5 km)
Ceiling: 2500 feet AGL
Clouds: scattered clouds at 500 feet AGL
broken clouds at 2500 feet AGL
Weather: BR  (mist)

METAR text: LGTS 221150Z VRB03KT 5000 2500SW -RA BR SCT005 BKN025 10/08 Q1012 NOSIG
Conditions at: LGTS (THESSALONIKI/MIK, GR) observed 1150 UTC 22 January 2019
Temperature: 10.0°C (50°F)
Dewpoint: 8.0°C (46°F) [RH = 87%]
Pressure (altimeter): 29.88 inches Hg (1012.0 mb)
Winds: variable direction winds at 3 MPH (3 knots; 1.5 m/s)
Visibility: 3 miles ( 5 km)
Ceiling: 2500 feet AGL
Clouds: scattered clouds at 500 feet AGL
broken clouds at 2500 feet AGL
Weather: -RA BR  (light rain, mist)

METAR text: LGTS 221120Z VRB03KT 5000 2500SW -RA SCT005 BKN025 09/08 Q1013 NOSIG
Conditions at: LGTS (THESSALONIKI/MIK, GR) observed 1120 UTC 22 January 2019
Temperature: 9.0°C (48°F)
Dewpoint: 8.0°C (46°F) [RH = 93%]
Pressure (altimeter): 29.91 inches Hg (1013.0 mb)
Winds: variable direction winds at 3 MPH (3 knots; 1.5 m/s)
Visibility: 3 miles ( 5 km)
Ceiling: 2500 feet AGL
Clouds: scattered clouds at 500 feet AGL
broken clouds at 2500 feet AGL
Weather: -RA  (light rain)

METAR text: LGTS 221050Z 30007KT 5000 2500SW BR SCT005 BKN025 09/08 Q1013 NOSIG
Conditions at: LGTS (THESSALONIKI/MIK, GR) observed 1050 UTC 22 January 2019
Temperature: 9.0°C (48°F)
Dewpoint: 8.0°C (46°F) [RH = 93%]
Pressure (altimeter): 29.91 inches Hg (1013.0 mb)
Winds: from the WNW (300 degrees) at 8 MPH (7 knots; 3.6 m/s)
Visibility: 3 miles ( 5 km)
Ceiling: 2500 feet AGL
Clouds: scattered clouds at 500 feet AGL
broken clouds at 2500 feet AGL
Weather: BR  (mist)

METAR text: LGTS 221020Z 29007KT 5000 2500SW BR SCT005 BKN025 09/08 Q1014 NOSIG
Conditions at: LGTS (THESSALONIKI/MIK, GR) observed 1020 UTC 22 January 2019
Temperature: 9.0°C (48°F)
Dewpoint: 8.0°C (46°F) [RH = 93%]
Pressure (altimeter): 29.94 inches Hg (1014.0 mb)
Winds: from the WNW (290 degrees) at 8 MPH (7 knots; 3.6 m/s)
Visibility: 3 miles ( 5 km)
Ceiling: 2500 feet AGL
Clouds: scattered clouds at 500 feet AGL
broken clouds at 2500 feet AGL
Weather: BR  (mist)

METAR text: LGTS 220950Z 30005KT 6000 SCT005 BKN025 09/08 Q1014 NOSIG
Conditions at: LGTS (THESSALONIKI/MIK, GR) observed 0950 UTC 22 January 2019
Temperature: 9.0°C (48°F)
Dewpoint: 8.0°C (46°F) [RH = 93%]
Pressure (altimeter): 29.94 inches Hg (1014.0 mb)
Winds: from the WNW (300 degrees) at 6 MPH (5 knots; 2.6 m/s)
Visibility: 4 miles ( 6 km)
Ceiling: 2500 feet AGL
Clouds: scattered clouds at 500 feet AGL
broken clouds at 2500 feet AGL
Weather: no significant weather observed at this time

METAR text: LGTS 220920Z 29004KT 4000 BR SCT005 BKN025 09/08 Q1015 NOSIG
Conditions at: LGTS (THESSALONIKI/MIK, GR) observed 0920 UTC 22 January 2019
Temperature: 9.0°C (48°F)
Dewpoint: 8.0°C (46°F) [RH = 93%]
Pressure (altimeter): 29.97 inches Hg (1015.0 mb)
Winds: from the WNW (290 degrees) at 5 MPH (4 knots; 2.1 m/s)
Visibility: 2.49 miles (4.01 km)
Ceiling: 2500 feet AGL
Clouds: scattered clouds at 500 feet AGL
broken clouds at 2500 feet AGL
Weather: BR  (mist)

METAR text: LGTS 220850Z 28004KT 4000 BR SCT005 BKN025 09/08 Q1015 TEMPO RA
Conditions at: LGTS (THESSALONIKI/MIK, GR) observed 0850 UTC 22 January 2019
Temperature: 9.0°C (48°F)
Dewpoint: 8.0°C (46°F) [RH = 93%]
Pressure (altimeter): 29.97 inches Hg (1015.0 mb)
Winds: from the W (280 degrees) at 5 MPH (4 knots; 2.1 m/s)
Visibility: 2.49 miles (4.01 km)
Ceiling: 2500 feet AGL
Clouds: scattered clouds at 500 feet AGL
broken clouds at 2500 feet AGL
Weather: BR  (mist)

METAR text: LGTS 220820Z VRB02KT 3000 BR SCT005 BKN020 08/07 Q1015 TEMPO RA
Conditions at: LGTS (THESSALONIKI/MIK, GR) observed 0820 UTC 22 January 2019
Temperature: 8.0°C (46°F)
Dewpoint: 7.0°C (45°F) [RH = 93%]
Pressure (altimeter): 29.97 inches Hg (1015.0 mb)
Winds: variable direction winds at 2 MPH (2 knots; 1.0 m/s)
Visibility: 1.86 miles (2.99 km)
Ceiling: 2000 feet AGL
Clouds: scattered clouds at 500 feet AGL
broken clouds at 2000 feet AGL
Weather: BR  (mist)

METAR text: LGTS 220750Z 30005KT 2500 -RA SCT005 BKN020 08/07 Q1015 TEMPO RA
Conditions at: LGTS (THESSALONIKI/MIK, GR) observed 0750 UTC 22 January 2019
Temperature: 8.0°C (46°F)
Dewpoint: 7.0°C (45°F) [RH = 93%]
Pressure (altimeter): 29.97 inches Hg (1015.0 mb)
Winds: from the WNW (300 degrees) at 6 MPH (5 knots; 2.6 m/s)
Visibility: 1.55 miles (2.49 km)
Ceiling: 2000 feet AGL
Clouds: scattered clouds at 500 feet AGL
broken clouds at 2000 feet AGL
Weather: -RA  (light rain)

Forecast for: LGTS (THESSALONIKI/MIK, GR)
Text: TAF LGTS 231700Z 2318/2418 VRB03KT 3000 RA BKN006 BKN025
Forecast period: 1800 UTC 23 January 2019 to 1000 UTC 24 January 2019
Forecast type: FROM: standard forecast or significant change
Winds: variable direction winds at 3 MPH (3 knots; 1.5 m/s)
Visibility: 1.86 miles (2.99 km)
Ceiling: 600 feet AGL
Clouds: broken clouds at 600 feet AGL
broken clouds at 2500 feet AGL
Weather: RA  (moderate rain)
Text: TEMPO 2321/2406 2000 TSRA BKN005 FEW016CB OVC020
Forecast period: 2100 UTC 23 January 2019 to 0600 UTC 24 January 2019
Forecast type: TEMPORARY: The following changes expected for less than half the time period
Visibility: 1.24 miles (2.00 km)
Ceiling: 500 feet AGL
Clouds: broken clouds at 500 feet AGL
few clouds at 1600 feet AGL
overcast cloud deck at 2000 feet AGL
Weather: TSRA  (rain associated with thunderstorm(s))
Text: BECMG 2410/2412 7000 SCT010 SCT025
Forecast period: 1000 to 1800 UTC 24 January 2019
Forecast type: BECOMING: Conditions expected to become as follows by 1200 UTC 24 January 2019
Winds: variable direction winds at 3 MPH (3 knots; 1.5 m/s)
Visibility: 4 miles (7 km)
Ceiling: at least 12,000 feet AGL
Clouds: scattered clouds at 1000 feet AGL
scattered clouds at 2500 feet AGL
Weather: RA  (moderate rain)